createdAt,value
2022-10-02T00:00:45.341Z,15.40
2022-10-02T00:03:28.045Z,15.50
2022-10-02T00:06:18.348Z,15.50
2022-10-02T00:08:58.340Z,15.60
2022-10-02T00:11:47.744Z,15.50
2022-10-02T00:14:23.198Z,15.60
2022-10-02T00:16:58.417Z,15.60
2022-10-02T00:22:30.694Z,15.60
2022-10-02T00:25:19.616Z,15.60
2022-10-02T00:28:13.049Z,15.60
2022-10-02T00:31:27.994Z,15.60
2022-10-02T00:34:41.034Z,15.70
2022-10-02T00:37:34.548Z,15.60
2022-10-02T00:40:36.150Z,15.70
2022-10-02T00:43:24.653Z,15.70
2022-10-02T00:46:27.467Z,15.70
2022-10-02T00:49:21.896Z,15.70
2022-10-02T00:52:24.099Z,15.70
2022-10-02T00:55:26.423Z,15.80
2022-10-02T00:58:16.472Z,15.80
2022-10-02T01:01:12.148Z,15.80
2022-10-02T01:03:56.814Z,15.80
2022-10-02T01:06:29.160Z,15.80
2022-10-02T01:09:02.563Z,15.70
2022-10-02T01:11:37.150Z,15.70
2022-10-02T01:16:42.296Z,15.80
2022-10-02T01:19:40.037Z,15.80
2022-10-02T01:22:53.826Z,15.80
2022-10-02T01:25:26.809Z,15.80
2022-10-02T01:27:58.846Z,15.80
2022-10-02T01:30:32.255Z,15.90
2022-10-02T01:33:05.410Z,15.90
2022-10-02T01:35:39.627Z,15.80
2022-10-02T01:38:15.590Z,15.80
2022-10-02T01:40:48.025Z,15.90
2022-10-02T01:43:27.701Z,15.90
2022-10-02T01:46:27.745Z,15.80
2022-10-02T01:49:12.921Z,15.90
2022-10-02T01:52:37.733Z,15.90
2022-10-02T01:55:28.054Z,16.00
2022-10-02T01:58:22.776Z,16.00
2022-10-02T02:01:08.534Z,16.00
2022-10-02T02:04:24.422Z,16.10
2022-10-02T02:07:05.580Z,16.10
2022-10-02T02:09:46.686Z,16.00
2022-10-02T02:12:34.575Z,16.00
2022-10-02T02:15:26.432Z,16.00
2022-10-02T02:18:12.853Z,16.00
2022-10-02T02:20:52.453Z,16.10
2022-10-02T02:23:31.603Z,16.10
2022-10-02T02:26:12.247Z,16.10
2022-10-02T02:28:51.731Z,16.10
2022-10-02T02:31:32.260Z,16.10
2022-10-02T02:34:12.440Z,16.10
2022-10-02T02:36:49.122Z,16.00
2022-10-02T02:39:39.850Z,16.00
2022-10-02T02:42:17.820Z,15.90
2022-10-02T02:45:15.987Z,15.90
2022-10-02T02:47:55.681Z,16.00
2022-10-02T02:50:36.550Z,16.00
2022-10-02T02:53:25.294Z,16.00
2022-10-02T02:56:03.959Z,15.90
2022-10-02T02:58:55.451Z,16.00
2022-10-02T03:01:27.787Z,16.10
2022-10-02T03:06:59.066Z,16.10
2022-10-02T03:09:33.815Z,16.10
2022-10-02T03:12:29.412Z,16.10
2022-10-02T03:15:23.636Z,16.10
2022-10-02T03:18:20.613Z,16.10
2022-10-02T03:21:26.193Z,16.10
2022-10-02T03:24:31.426Z,16.10
2022-10-02T03:27:35.006Z,16.10
2022-10-02T03:30:11.219Z,16.10
2022-10-02T03:32:46.479Z,16.10
2022-10-02T03:35:20.836Z,16.20
2022-10-02T03:37:59.448Z,16.20
2022-10-02T03:40:32.384Z,16.10
2022-10-02T03:43:04.634Z,16.10
2022-10-02T03:45:50.862Z,16.10
2022-10-02T03:48:24.245Z,16.10
2022-10-02T03:50:56.582Z,16.20
2022-10-02T03:53:35.743Z,16.10
2022-10-02T03:56:35.931Z,16.10
2022-10-02T03:59:35.305Z,16.10
2022-10-02T04:02:50.187Z,16.20
2022-10-02T04:05:42.457Z,16.20
2022-10-02T04:08:22.861Z,16.10
2022-10-02T04:11:12.535Z,16.20
2022-10-02T04:13:49.772Z,16.30
2022-10-02T04:16:44.807Z,16.30
2022-10-02T04:19:26.419Z,16.20
2022-10-02T04:22:14.760Z,16.20
2022-10-02T04:25:05.860Z,16.20
2022-10-02T04:27:58.218Z,16.20
2022-10-02T04:30:30.162Z,16.20
2022-10-02T04:33:15.875Z,16.20
2022-10-02T04:36:37.354Z,16.20
2022-10-02T04:39:35.581Z,16.20
2022-10-02T04:42:30.140Z,16.20
2022-10-02T04:45:40.144Z,16.30
2022-10-02T04:48:57.755Z,16.30
2022-10-02T04:51:38.436Z,16.30
2022-10-02T04:54:33.096Z,16.30
2022-10-02T04:57:36.181Z,16.30
2022-10-02T05:00:16.757Z,16.40
2022-10-02T05:02:55.122Z,16.40
2022-10-02T05:05:44.939Z,16.40
2022-10-02T05:08:39.744Z,16.50
2022-10-02T05:11:51.444Z,16.50
2022-10-02T05:15:34.596Z,16.50
2022-10-02T05:18:41.246Z,16.50
2022-10-02T05:21:43.081Z,16.50
2022-10-02T05:24:47.425Z,16.50
2022-10-02T05:27:57.729Z,16.50
2022-10-02T05:30:49.806Z,16.50
2022-10-02T05:33:48.543Z,16.50
2022-10-02T05:36:43.384Z,16.60
2022-10-02T05:39:27.802Z,16.60
2022-10-02T05:42:31.823Z,16.60
2022-10-02T05:45:36.821Z,16.70
2022-10-02T05:48:29.993Z,16.80
2022-10-02T05:51:22.932Z,16.80
2022-10-02T05:54:07.445Z,16.90
2022-10-02T05:56:49.598Z,16.90
2022-10-02T05:59:57.577Z,16.90
2022-10-02T06:02:57.338Z,17.00
2022-10-02T06:05:43.283Z,17.10
2022-10-02T06:08:22.182Z,17.10
2022-10-02T06:11:01.975Z,17.10
2022-10-02T06:13:48.294Z,17.20
2022-10-02T06:16:42.848Z,17.20
2022-10-02T06:19:29.117Z,17.30
2022-10-02T06:22:13.503Z,17.20
2022-10-02T06:25:04.815Z,17.30
2022-10-02T06:27:49.139Z,17.30
2022-10-02T06:30:22.075Z,17.40
2022-10-02T06:33:12.486Z,17.50
2022-10-02T06:36:12.875Z,17.40
2022-10-02T06:39:07.226Z,17.40
2022-10-02T06:42:31.453Z,17.50
2022-10-02T06:45:59.184Z,17.50
2022-10-02T06:48:54.477Z,17.60
2022-10-02T06:52:06.631Z,17.60
2022-10-02T06:55:22.024Z,17.60
2022-10-02T06:58:21.635Z,17.60
2022-10-02T07:01:08.073Z,17.60
2022-10-02T07:04:13.054Z,17.50
2022-10-02T07:07:16.863Z,17.50
2022-10-02T07:10:03.305Z,17.50
2022-10-02T07:13:19.277Z,17.50
2022-10-02T07:16:16.282Z,17.40
2022-10-02T07:19:04.886Z,17.50
2022-10-02T07:22:44.583Z,17.50
2022-10-02T07:25:39.972Z,17.70
2022-10-02T07:28:33.132Z,17.80
2022-10-02T07:31:46.403Z,18.00
2022-10-02T07:35:01.259Z,18.00
2022-10-02T07:38:14.058Z,18.10
2022-10-02T07:41:18.994Z,18.00
2022-10-02T07:43:57.489Z,18.00
2022-10-02T07:47:20.985Z,18.10
2022-10-02T07:50:26.498Z,18.20
2022-10-02T07:53:20.092Z,18.40
2022-10-02T07:55:55.657Z,18.50
2022-10-02T07:58:45.125Z,18.70
2022-10-02T08:01:22.726Z,18.70
2022-10-02T08:04:04.076Z,18.70
2022-10-02T08:06:37.747Z,18.70
2022-10-02T08:09:34.942Z,19.00
2022-10-02T08:12:34.402Z,19.20
2022-10-02T08:15:11.241Z,19.10
2022-10-02T08:18:16.554Z,19.10
2022-10-02T08:20:52.393Z,19.90
2022-10-02T08:23:29.518Z,20.30
2022-10-02T08:26:11.563Z,19.90
2022-10-02T08:28:58.251Z,19.90
2022-10-02T08:31:30.257Z,19.80
2022-10-02T08:34:22.140Z,19.50
2022-10-02T08:37:25.257Z,19.20
2022-10-02T08:40:41.667Z,18.90
2022-10-02T08:43:22.807Z,18.90
2022-10-02T08:46:23.997Z,18.90
2022-10-02T08:49:46.892Z,18.90
2022-10-02T08:55:52.441Z,18.70
2022-10-02T08:58:53.845Z,18.40
2022-10-02T09:02:17.448Z,18.10
2022-10-02T09:05:33.608Z,17.70
2022-10-02T09:09:19.940Z,17.60
2022-10-02T09:11:55.080Z,17.40
2022-10-02T09:15:14.285Z,17.40
2022-10-02T09:18:15.506Z,17.40
2022-10-02T09:21:32.733Z,17.50
2022-10-02T09:24:43.868Z,17.50
2022-10-02T09:27:46.218Z,17.70
2022-10-02T09:31:11.987Z,17.80
2022-10-02T09:34:08.693Z,18.00
2022-10-02T09:37:16.631Z,17.90
2022-10-02T09:40:32.939Z,17.80
2022-10-02T09:43:54.168Z,17.70
2022-10-02T09:49:36.012Z,18.90
2022-10-02T09:52:41.960Z,17.60
2022-10-02T09:55:27.731Z,17.60
2022-10-02T09:58:52.693Z,17.50
2022-10-02T10:01:51.263Z,17.40
2022-10-02T10:04:54.119Z,17.30
2022-10-02T10:08:03.283Z,17.10
2022-10-02T10:11:15.041Z,17.10
2022-10-02T10:14:13.462Z,17.10
2022-10-02T10:17:14.459Z,17.10
2022-10-02T10:22:49.593Z,17.00
2022-10-02T10:25:51.104Z,16.90
2022-10-02T10:28:55.507Z,16.90
2022-10-02T10:32:12.042Z,16.90
2022-10-02T10:35:36.692Z,17.00
2022-10-02T10:38:51.179Z,17.00
2022-10-02T10:42:01.552Z,17.10
2022-10-02T10:45:18.316Z,17.10
2022-10-02T10:48:10.061Z,17.10
2022-10-02T10:51:04.666Z,17.20
2022-10-02T10:54:21.789Z,17.20
2022-10-02T10:57:04.793Z,17.30
2022-10-02T11:00:09.451Z,17.40
2022-10-02T11:02:56.793Z,17.40
2022-10-02T11:06:14.706Z,17.50
2022-10-02T11:09:26.882Z,17.60
2022-10-02T11:12:42.063Z,17.80
2022-10-02T11:21:39.927Z,18.60
2022-10-02T11:24:28.349Z,18.60
2022-10-02T11:27:51.288Z,18.80
2022-10-02T11:30:36.118Z,19.00
2022-10-02T11:36:47.722Z,19.50
2022-10-02T11:39:41.280Z,19.60
2022-10-02T11:43:14.069Z,19.40
2022-10-02T11:46:22.001Z,19.50
2022-10-02T11:49:42.056Z,19.70
2022-10-02T11:52:48.225Z,19.70
2022-10-02T11:56:03.543Z,19.50
2022-10-02T11:58:57.209Z,19.40
2022-10-02T12:02:07.287Z,19.40
2022-10-02T12:05:25.104Z,19.70
2022-10-02T12:08:29.629Z,19.60
2022-10-02T12:11:51.601Z,19.50
2022-10-02T12:14:44.521Z,18.70
2022-10-02T12:20:37.213Z,20.00
2022-10-02T12:23:46.746Z,19.70
2022-10-02T12:27:01.065Z,19.90
2022-10-02T12:30:01.302Z,19.80
2022-10-02T12:33:08.535Z,19.60
2022-10-02T12:35:49.311Z,19.50
2022-10-02T12:38:32.885Z,19.40
2022-10-02T12:41:20.423Z,19.30
2022-10-02T12:46:50.035Z,19.50
2022-10-02T12:49:53.882Z,19.70
2022-10-02T12:53:12.713Z,19.90
2022-10-02T12:56:28.718Z,19.90
2022-10-02T12:59:32.175Z,19.80
2022-10-02T13:03:01.829Z,19.70
2022-10-02T13:06:31.902Z,19.70
2022-10-02T13:09:52.748Z,19.80
2022-10-02T13:13:06.145Z,19.80
2022-10-02T13:18:57.396Z,20.00
2022-10-02T13:21:58.964Z,20.30
2022-10-02T13:24:53.936Z,20.50
2022-10-02T13:28:02.198Z,20.50
2022-10-02T13:30:44.786Z,20.20
2022-10-02T13:34:08.714Z,20.10
2022-10-02T13:36:49.957Z,20.10
2022-10-02T13:39:54.560Z,20.10
2022-10-02T13:42:29.250Z,19.90
2022-10-02T13:45:24.291Z,19.90
2022-10-02T13:48:14.605Z,19.80
2022-10-02T13:51:00.235Z,19.80
2022-10-02T13:53:52.603Z,19.70
2022-10-02T13:56:58.055Z,19.70
2022-10-02T13:59:42.450Z,19.60
2022-10-02T14:02:30.281Z,19.60
2022-10-02T14:05:35.011Z,19.70
2022-10-02T14:08:36.838Z,19.70
2022-10-02T14:11:32.824Z,19.70
2022-10-02T14:14:40.247Z,19.50
2022-10-02T14:18:05.813Z,19.00
2022-10-02T14:23:47.224Z,17.80
2022-10-02T14:26:47.401Z,17.70
2022-10-02T14:29:46.055Z,17.70
2022-10-02T14:33:12.206Z,17.40
2022-10-02T14:35:55.581Z,17.20
2022-10-02T14:38:54.825Z,17.20
2022-10-02T14:41:50.329Z,17.40
2022-10-02T14:44:57.873Z,17.60
2022-10-02T14:47:45.010Z,17.70
2022-10-02T14:50:53.851Z,17.80
2022-10-02T14:53:50.740Z,17.80
2022-10-02T14:56:33.911Z,17.80
2022-10-02T14:59:47.045Z,17.80
2022-10-02T15:02:48.566Z,21.70
2022-10-02T15:05:34.384Z,17.80
2022-10-02T15:08:34.620Z,17.70
2022-10-02T15:11:22.013Z,17.60
2022-10-02T15:14:29.103Z,17.50
2022-10-02T15:17:42.599Z,17.60
2022-10-02T15:20:38.575Z,17.60
2022-10-02T15:23:14.280Z,17.60
2022-10-02T15:26:32.598Z,17.70
2022-10-02T15:29:43.421Z,17.70
2022-10-02T15:32:34.585Z,17.70
2022-10-02T15:35:19.956Z,17.80
2022-10-02T15:38:04.608Z,17.80
2022-10-02T15:40:52.893Z,17.80
2022-10-02T15:43:54.328Z,17.80
2022-10-02T15:49:38.456Z,17.90
2022-10-02T15:52:37.966Z,17.90
2022-10-02T15:55:29.440Z,17.90
2022-10-02T16:01:16.916Z,17.90
2022-10-02T16:03:54.084Z,17.80
2022-10-02T16:06:50.596Z,17.80
2022-10-02T16:10:03.293Z,17.70
2022-10-02T16:15:52.800Z,17.50
2022-10-02T16:18:56.524Z,17.40
2022-10-02T16:22:17.024Z,17.20
2022-10-02T16:25:19.518Z,17.00
2022-10-02T16:28:25.786Z,16.90
2022-10-02T16:31:07.224Z,16.80
2022-10-02T16:34:51.644Z,16.70
2022-10-02T16:37:46.897Z,16.70
2022-10-02T16:40:43.880Z,16.70
2022-10-02T16:46:09.544Z,16.60
2022-10-02T16:49:30.372Z,16.50
2022-10-02T16:52:22.526Z,16.50
2022-10-02T16:55:15.487Z,16.50
2022-10-02T16:58:00.295Z,16.50
2022-10-02T17:00:39.168Z,16.60
2022-10-02T17:03:37.246Z,16.60
2022-10-02T17:06:32.941Z,16.60
2022-10-02T17:09:28.716Z,16.70
2022-10-02T17:12:20.333Z,16.70
2022-10-02T17:15:07.535Z,16.80
2022-10-02T17:17:42.328Z,16.80
2022-10-02T17:20:29.713Z,16.90
2022-10-02T17:25:55.682Z,16.80
2022-10-02T17:28:36.351Z,17.00
2022-10-02T17:31:35.707Z,17.00
2022-10-02T17:34:23.878Z,17.00
2022-10-02T17:37:14.002Z,17.00
2022-10-02T17:40:17.325Z,17.00
2022-10-02T17:43:35.513Z,17.10
2022-10-02T17:47:07.321Z,17.10
2022-10-02T17:50:05.299Z,17.10
2022-10-02T17:53:21.480Z,17.20
2022-10-02T17:56:28.164Z,17.10
2022-10-02T17:59:33.349Z,17.20
2022-10-02T18:02:22.492Z,17.20
2022-10-02T18:05:30.162Z,17.20
2022-10-02T18:08:30.795Z,17.10
2022-10-02T18:11:51.377Z,17.20
2022-10-02T18:15:05.582Z,17.30
2022-10-02T18:17:51.237Z,17.30
2022-10-02T18:20:52.126Z,17.30
2022-10-02T18:23:48.356Z,17.30
2022-10-02T18:26:26.295Z,17.20
2022-10-02T18:29:54.769Z,17.20
2022-10-02T18:32:36.479Z,17.20
2022-10-02T18:35:22.721Z,17.20
2022-10-02T18:38:29.971Z,17.10
2022-10-02T18:41:45.028Z,17.00
2022-10-02T18:44:38.386Z,16.70
2022-10-02T18:47:31.553Z,16.30
2022-10-02T18:50:32.358Z,15.50
2022-10-02T18:53:29.020Z,15.00
2022-10-02T18:56:14.229Z,14.60
2022-10-02T18:59:18.186Z,14.40
2022-10-02T19:02:02.623Z,14.40
2022-10-02T19:05:04.793Z,14.40
2022-10-02T19:07:56.659Z,14.40
2022-10-02T19:10:31.468Z,14.40
2022-10-02T19:13:21.961Z,14.40
2022-10-02T19:15:58.995Z,14.30
2022-10-02T19:18:33.181Z,14.40
2022-10-02T19:21:13.437Z,14.30
2022-10-02T19:24:01.314Z,14.30
2022-10-02T19:26:42.343Z,14.20
2022-10-02T19:29:48.690Z,14.10
2022-10-02T19:32:40.723Z,14.10
2022-10-02T19:35:20.005Z,14.10
2022-10-02T19:38:09.070Z,14.10
2022-10-02T19:40:42.018Z,14.10
2022-10-02T19:43:26.278Z,14.10
2022-10-02T19:46:02.772Z,14.10
2022-10-02T19:51:18.405Z,14.10
2022-10-02T19:53:53.622Z,14.10
2022-10-02T19:56:41.342Z,14.10
2022-10-02T19:59:44.787Z,14.10
2022-10-02T20:02:27.621Z,14.20
2022-10-02T20:05:02.595Z,14.30
2022-10-02T20:07:38.932Z,14.30
2022-10-02T20:13:10.668Z,14.30
2022-10-02T20:16:10.057Z,14.30
2022-10-02T20:18:42.803Z,14.20
2022-10-02T20:21:37.568Z,14.20
2022-10-02T20:24:27.929Z,14.30
2022-10-02T20:27:11.681Z,14.30
2022-10-02T20:29:49.425Z,14.40
2022-10-02T20:32:32.784Z,14.30
2022-10-02T20:35:23.460Z,14.30
2022-10-02T20:38:00.041Z,14.30
2022-10-02T20:40:36.813Z,14.20
2022-10-02T20:43:47.299Z,14.30
2022-10-02T20:46:52.827Z,14.20
2022-10-02T20:53:02.428Z,14.20
2022-10-02T20:55:56.724Z,14.20
2022-10-02T20:59:09.560Z,14.20
2022-10-02T21:02:08.640Z,14.20
2022-10-02T21:05:32.038Z,14.20
2022-10-02T21:08:44.288Z,14.20
2022-10-02T21:11:28.633Z,14.20
2022-10-02T21:14:14.242Z,14.20
2022-10-02T21:17:13.839Z,14.10
2022-10-02T21:20:46.307Z,14.10
2022-10-02T21:23:44.667Z,14.00
2022-10-02T21:26:58.772Z,14.10
2022-10-02T21:30:08.253Z,14.10
2022-10-02T21:33:15.099Z,14.10
2022-10-02T21:36:16.097Z,14.00
2022-10-02T21:39:29.285Z,14.00
2022-10-02T21:42:45.523Z,14.00
2022-10-02T21:45:58.009Z,14.00
2022-10-02T21:49:15.814Z,14.00
2022-10-02T21:52:31.974Z,14.00
2022-10-02T21:55:23.450Z,13.90
2022-10-02T21:58:18.053Z,13.90
2022-10-02T22:01:57.377Z,13.90
2022-10-02T22:05:08.279Z,14.00
2022-10-02T22:08:03.472Z,14.10
2022-10-02T22:10:54.601Z,14.10
2022-10-02T22:13:41.218Z,14.10
2022-10-02T22:16:45.434Z,14.10
2022-10-02T22:19:40.366Z,14.10
2022-10-02T22:22:51.077Z,14.10
2022-10-02T22:25:48.955Z,14.00
2022-10-02T22:28:56.624Z,14.10
2022-10-02T22:32:28.121Z,14.00
2022-10-02T22:35:57.139Z,14.00
2022-10-02T22:38:36.744Z,14.10
2022-10-02T22:41:30.335Z,14.10
2022-10-02T22:44:23.678Z,14.10
2022-10-02T22:47:14.859Z,14.10
2022-10-02T22:49:52.676Z,14.00
2022-10-02T22:52:42.749Z,13.90
2022-10-02T22:55:19.501Z,13.80
2022-10-02T22:58:06.062Z,13.80
2022-10-02T23:01:06.028Z,13.70
2022-10-02T23:04:09.638Z,13.70
2022-10-02T23:06:52.694Z,13.70
2022-10-02T23:09:29.722Z,13.80
2022-10-02T23:12:36.445Z,13.80
2022-10-02T23:15:32.652Z,13.70
2022-10-02T23:18:36.044Z,13.70
2022-10-02T23:21:29.713Z,13.70
2022-10-02T23:24:31.270Z,13.60
2022-10-02T23:27:11.371Z,13.70
2022-10-02T23:29:56.580Z,13.70
2022-10-02T23:32:47.366Z,13.70
2022-10-02T23:35:47.774Z,13.70
2022-10-02T23:39:08.457Z,13.70
2022-10-02T23:41:49.660Z,13.70
2022-10-02T23:44:37.366Z,13.60
2022-10-02T23:47:36.127Z,13.50
2022-10-02T23:50:43.177Z,13.50
2022-10-02T23:53:43.786Z,13.50
2022-10-02T23:56:41.548Z,13.50
2022-10-02T23:59:30.990Z,13.60
